Strona główna
METAR-TAF:

METAR-TAF

Lotnisko :

Chamberlain Municipal Airport

Chamberlain, Dakota Południowa, Stany Zjednoczone

Szerokość geograficzna: 43-46-00N, Długość geograficzna: 099-19-06W, wysokość: 516 m

Aktualna obserwacja pogody

Raport powstał 12 minut temu, godzina 05:15 UTC
Cisza
Temperatura -2°C
Wilgotność 100%
Ciśnienie 1020 hPa
Widzialność: 16.1 km
Zachmurzenie całkowite na wysokości 800 ft

METAR: K9V9 280515Z AUTO 00000KT 10SM OVC008 M02/M02 A3012 RMK AO2 T10171017

czas: 23:27 (05:27 UTC)


TAF: brakujący

Obserwacja i prognoza pogody dla ponad 4000 lotnisk (raport METAR i TAF).

Dostępne stacje oznaczono żółtymi i czerwonymi punktami na mapie.

Najedź kursorem aby zobaczyć nazwę stacji.

Kliknij aby zobaczyć obserwacje i prognozy pogody.

Aby zmienić mapę: kliknij na zielony przycisk z czarnym krzyżykiem, aby powiększyć; na zielony przycisk z myślnikiem, aby pomniejszyć; na zielone strzałki, aby przejść do map sąsiednich.


METAR-TAF: